Time;durP1;ratioP1;P1;durP2;ratioP2;P2;SDS_P1;SDS_P2;PMS_P1;PMS_P2;Temp;Humidity;BMP_temperature;BMP_pressure;BME280_temperature;BME280_humidity;BME280_pressure;Samples;Min_cycle;Max_cycle;Signal;HPM_P1;HPM_P2
2022/07/13 12:19:42;;;;;;;5.50;5.00;;;26.90;99.90;;;;;;4859003;29;20878;-93
2022/07/13 12:23:03;;;;;;;6.13;5.70;;;26.90;99.90;;;;;;4863963;29;20479;-92
2022/07/13 12:26:19;;;;;;;5.13;4.80;;;27.00;99.90;;;;;;4833090;29;20498;-92
2022/07/13 12:47:01;;;;;;;5.53;5.13;;;27.50;99.90;;;;;;4877578;29;20575;-92
2022/07/13 12:49:50;;;;;;;10.47;9.53;;;27.40;99.90;;;;;;4894889;29;20466;-93
2022/07/13 12:52:39;;;;;;;6.57;6.03;;;27.40;99.90;;;;;;4889551;29;20575;-92
2022/07/13 12:55:27;;;;;;;6.80;6.17;;;27.50;99.90;;;;;;4884929;29;20480;-92
2022/07/13 12:58:16;;;;;;;6.20;5.70;;;27.60;99.90;;;;;;4873057;29;20437;-91
2022/07/13 13:01:05;;;;;;;5.47;4.97;;;27.70;99.90;;;;;;4872069;29;20460;-93
2022/07/13 13:04:30;;;;;;;2.90;2.80;;;27.90;99.90;;;;;;4868108;29;20518;-93
2022/07/13 13:07:50;;;;;;;3.53;3.30;;;28.00;99.90;;;;;;4866964;29;20516;-92
2022/07/13 13:10:44;;;;;;;3.50;3.30;;;28.00;99.90;;;;;;4865815;29;20875;-93
2022/07/13 13:13:36;;;;;;;3.37;3.17;;;28.00;99.90;;;;;;4870631;29;20479;-91
2022/07/13 13:16:24;;;;;;;3.70;3.40;;;28.00;99.90;;;;;;4865029;29;20467;-92
2022/07/13 13:19:15;;;;;;;4.03;3.70;;;28.00;99.90;;;;;;4862856;29;20448;-92
2022/07/13 13:22:15;;;;;;;4.37;3.87;;;28.00;99.90;;;;;;4868365;29;20866;-92
2022/07/13 13:26:10;;;;;;;4.17;3.87;;;28.00;99.90;;;;;;4894541;29;20480;-89
2022/07/13 13:32:28;;;;;;;5.87;4.30;;;28.00;99.90;;;;;;4890234;29;20490;-93
2022/07/13 13:35:28;;;;;;;;;;;;;;;;;;;;;
2022/07/13 13:38:27;;;;;;;4.60;4.30;;;28.10;99.90;;;;;;4878373;29;20518;-90
2022/07/13 13:41:17;;;;;;;4.07;3.70;;;28.00;99.90;;;;;;4886728;29;20864;-89
2022/07/13 13:44:06;;;;;;;4.20;3.77;;;28.10;99.90;;;;;;4884854;29;20484;-90
2022/07/13 13:46:55;;;;;;;4.90;4.10;;;28.20;99.90;;;;;;4881755;29;20481;-92
2022/07/13 13:49:59;;;;;;;4.10;3.90;;;28.30;99.90;;;;;;4883113;29;20550;-92
2022/07/13 13:52:53;;;;;;;3.33;3.13;;;28.40;99.90;;;;;;4889069;29;20468;-93
2022/07/13 13:59:21;;;;;;;5.20;2.70;;;28.40;99.90;;;;;;4889595;29;20458;-90
2022/07/13 14:06:39;;;;;;;2.37;2.27;;;28.60;99.90;;;;;;4859360;29;20490;-92
2022/07/13 14:24:56;;;;;;;3.93;2.23;;;28.60;99.90;;;;;;4787161;29;20499;-94
2022/07/13 14:28:10;;;;;;;3.13;2.10;;;28.50;99.90;;;;;;4790552;29;20997;-92
2022/07/13 14:31:40;;;;;;;2.97;2.77;;;28.50;99.90;;;;;;4787884;29;20455;-91
2022/07/13 14:34:56;;;;;;;2.57;2.37;;;28.60;99.90;;;;;;4865980;29;20451;-93
2022/07/13 14:38:36;;;;;;;4.40;2.63;;;28.80;99.90;;;;;;4854816;29;20459;-90
2022/07/13 14:45:37;;;;;;;3.00;2.70;;;28.80;99.90;;;;;;4865036;29;20504;-93
2022/07/13 14:52:16;;;;;;;3.30;2.60;;;28.80;99.90;;;;;;4859488;29;20861;-92
2022/07/13 14:55:09;;;;;;;3.13;2.80;;;28.90;99.90;;;;;;4859366;29;20463;-92
2022/07/13 14:58:21;;;;;;;3.50;3.20;;;29.00;99.90;;;;;;4868347;29;20487;-90
2022/07/13 15:01:44;;;;;;;4.70;2.77;;;29.00;99.90;;;;;;4875973;29;20488;-92
2022/07/13 15:04:46;;;;;;;3.23;3.03;;;29.10;99.90;;;;;;4866087;29;20866;-94
2022/07/13 15:07:50;;;;;;;3.50;3.30;;;29.20;99.90;;;;;;4874582;29;20468;-94
2022/07/13 15:10:42;;;;;;;3.00;2.70;;;29.10;99.90;;;;;;4875693;29;20466;-92
2022/07/13 15:13:40;;;;;;;3.00;2.53;;;29.10;99.90;;;;;;4866522;29;20588;-93
2022/07/13 15:16:49;;;;;;;2.93;2.73;;;29.10;99.90;;;;;;4862626;29;20448;-92
2022/07/13 15:20:22;;;;;;;3.20;2.60;;;29.10;99.90;;;;;;4856483;29;21031;-91
2022/07/13 15:23:16;;;;;;;2.80;2.60;;;29.00;99.90;;;;;;4864966;29;20482;-92
2022/07/13 15:26:21;;;;;;;;;;;;;;;;;;;;;
2022/07/13 15:29:13;;;;;;;2.40;2.30;;;29.10;99.90;;;;;;4867404;29;20483;-91
2022/07/13 15:32:14;;;;;;;3.67;2.50;;;29.10;99.90;;;;;;4860523;29;20503;-93
2022/07/13 15:35:05;;;;;;;2.70;2.50;;;29.00;99.90;;;;;;4879924;29;20474;-91
2022/07/13 15:37:58;;;;;;;6.60;2.70;;;29.10;99.90;;;;;;4864531;29;20483;-92
2022/07/13 15:57:52;;;;;;;2.90;2.40;;;28.90;99.90;;;;;;4902962;29;20493;-94
2022/07/13 16:00:43;;;;;;;2.80;2.70;;;28.90;99.90;;;;;;4902673;29;21311;-92
2022/07/13 16:03:36;;;;;;;2.83;2.50;;;28.70;99.90;;;;;;4891406;29;20493;-94
2022/07/13 16:06:28;;;;;;;2.67;2.47;;;28.60;99.90;;;;;;4894731;29;20467;-94
2022/07/13 16:09:17;;;;;;;3.13;2.90;;;28.70;99.90;;;;;;4887303;29;20467;-92
2022/07/13 16:12:09;;;;;;;2.70;2.50;;;28.60;99.90;;;;;;4890422;29;20469;-93
2022/07/13 16:15:27;;;;;;;2.57;2.47;;;28.40;99.90;;;;;;4890283;29;21072;-92
2022/07/13 16:18:16;;;;;;;2.87;2.63;;;28.40;99.90;;;;;;4864187;29;20455;-95
2022/07/13 16:29:37;;;;;;;2.43;2.33;;;28.30;99.90;;;;;;4786517;29;20487;-93
2022/07/13 16:32:28;;;;;;;2.97;2.77;;;28.00;99.90;;;;;;4821923;29;20886;-92
2022/07/13 16:35:41;;;;;;;2.83;2.60;;;27.80;99.90;;;;;;4834648;29;21162;-95
2022/07/13 16:38:32;;;;;;;2.90;2.10;;;27.70;99.90;;;;;;4827529;29;20906;-93
2022/07/13 16:41:21;;;;;;;2.40;2.20;;;27.50;99.90;;;;;;4825787;29;20524;-92
2022/07/13 16:44:11;;;;;;;2.60;2.40;;;27.40;99.90;;;;;;4829724;29;20445;-93
2022/07/13 16:47:32;;;;;;;3.63;2.87;;;27.30;99.90;;;;;;4836112;29;20494;-94
2022/07/13 16:50:23;;;;;;;2.73;2.10;;;27.20;99.90;;;;;;4828382;29;21082;-91
2022/07/13 16:53:51;;;;;;;2.63;2.37;;;27.20;99.90;;;;;;4820252;29;20477;-92
2022/07/13 16:57:23;;;;;;;2.70;2.50;;;27.00;99.90;;;;;;4824089;29;20469;-90
2022/07/13 17:00:45;;;;;;;2.40;2.20;;;26.80;99.90;;;;;;4861994;29;20455;-94
2022/07/13 17:03:57;;;;;;;2.20;2.10;;;26.90;99.90;;;;;;4893044;29;20549;-94
2022/07/13 17:06:52;;;;;;;3.90;2.40;;;26.60;99.90;;;;;;4886601;29;20474;-95
2022/07/13 17:09:53;;;;;;;3.53;2.37;;;26.60;99.90;;;;;;4888238;29;20439;-94
2022/07/13 17:13:09;;;;;;;2.63;2.03;;;26.50;99.90;;;;;;4887768;29;20542;-95
2022/07/13 17:15:58;;;;;;;2.53;2.20;;;26.40;99.90;;;;;;4858213;29;20451;-96
2022/07/13 17:18:58;;;;;;;2.20;2.00;;;26.30;99.90;;;;;;4900710;29;20446;-96
2022/07/13 17:21:49;;;;;;;3.03;2.03;;;26.30;99.90;;;;;;4895428;29;20510;-94
2022/07/13 17:54:34;;;;;;;2.53;2.27;;;24.80;99.90;;;;;;5738641;23;20493;-90
2022/07/13 17:57:56;;;;;;;4.70;2.00;;;24.60;99.90;;;;;;4900181;29;20948;-91
2022/07/13 18:04:39;;;;;;;3.83;2.10;;;24.50;99.90;;;;;;4898763;29;20486;-90
2022/07/13 18:42:17;;;;;;;5.83;2.67;;;23.30;99.90;;;;;;4882789;29;20463;-92
2022/07/13 18:53:16;;;;;;;4.40;2.30;;;22.80;99.90;;;;;;4844303;29;20956;-91
